Time;durP1;ratioP1;P1;durP2;ratioP2;P2;SDS_P1;SDS_P2;PMS_P1;PMS_P2;Temp;Humidity;BMP_temperature;BMP_pressure;BME280_temperature;BME280_humidity;BME280_pressure;Samples;Min_cycle;Max_cycle;Signal;HPM_P1;HPM_P2
2022/08/16 00:02:17;;;;;;;4.47;4.07;;;22.70;65.70;;;;;;5030508;28;20436;-47
2022/08/16 00:04:43;;;;;;;4.23;3.93;;;22.80;65.30;;;;;;5030023;28;20432;-45
2022/08/16 00:07:09;;;;;;;4.17;3.80;;;22.80;65.00;;;;;;5028846;28;20291;-49
2022/08/16 00:09:34;;;;;;;4.00;3.70;;;22.90;64.40;;;;;;5029934;28;20201;-49
2022/08/16 00:12:00;;;;;;;9.73;4.23;;;23.00;63.90;;;;;;5029015;28;20254;-48
2022/08/16 00:14:29;;;;;;;5.67;3.80;;;22.90;64.30;;;;;;5029682;28;20224;-46
2022/08/16 00:16:55;;;;;;;4.03;3.63;;;22.70;65.60;;;;;;5030606;28;20793;-45
2022/08/16 00:19:25;;;;;;;6.73;4.27;;;22.80;65.20;;;;;;5029940;28;20428;-46
2022/08/16 00:21:52;;;;;;;4.43;3.90;;;22.70;65.90;;;;;;5030260;28;20185;-49
2022/08/16 00:24:18;;;;;;;6.80;3.73;;;22.60;66.20;;;;;;5029856;28;20424;-46
2022/08/16 00:26:44;;;;;;;4.80;4.40;;;22.80;65.70;;;;;;5030730;28;20430;-45
2022/08/16 00:29:12;;;;;;;3.87;3.60;;;22.90;65.00;;;;;;5033424;28;20424;-45
2022/08/16 00:31:38;;;;;;;6.70;4.10;;;22.90;64.70;;;;;;5033945;28;20193;-46
2022/08/16 00:34:03;;;;;;;7.07;4.47;;;23.00;64.10;;;;;;5031691;28;20489;-45
2022/08/16 00:36:29;;;;;;;4.17;3.87;;;23.10;63.50;;;;;;5034015;28;20428;-45
2022/08/16 00:38:55;;;;;;;7.73;4.70;;;22.80;64.80;;;;;;5033679;28;20304;-49
2022/08/16 00:41:21;;;;;;;4.53;3.70;;;22.60;65.90;;;;;;5033785;28;20280;-45
2022/08/16 00:43:46;;;;;;;4.77;4.20;;;22.70;66.20;;;;;;5033393;28;20194;-45
2022/08/16 00:46:18;;;;;;;4.37;3.90;;;22.90;65.10;;;;;;5034218;28;20203;-45
2022/08/16 00:48:44;;;;;;;4.50;4.10;;;22.90;64.60;;;;;;5033625;28;20197;-48
2022/08/16 00:51:12;;;;;;;4.87;4.37;;;22.90;64.60;;;;;;5033815;28;20957;-48
2022/08/16 00:53:37;;;;;;;4.13;3.83;;;22.80;64.90;;;;;;5033489;28;20480;-46
2022/08/16 00:56:08;;;;;;;4.03;3.60;;;22.60;66.00;;;;;;5033634;28;20428;-45
2022/08/16 00:58:37;;;;;;;5.30;4.50;;;22.40;66.70;;;;;;5034106;28;20194;-49
2022/08/16 01:01:05;;;;;;;4.97;4.57;;;22.50;66.30;;;;;;5031816;28;20439;-47
2022/08/16 01:03:31;;;;;;;4.50;4.10;;;22.70;65.90;;;;;;5033446;28;20456;-44
2022/08/16 01:05:58;;;;;;;5.30;4.80;;;22.60;65.60;;;;;;5033025;28;20837;-49
2022/08/16 01:08:25;;;;;;;4.37;4.00;;;22.50;66.20;;;;;;5033380;28;20189;-49
2022/08/16 01:10:51;;;;;;;4.77;4.37;;;22.60;66.20;;;;;;5032863;28;20562;-49
2022/08/16 01:13:24;;;;;;;6.73;4.73;;;22.50;66.20;;;;;;5033163;28;20851;-48
2022/08/16 01:16:01;;;;;;;5.30;4.47;;;22.50;66.40;;;;;;5032951;28;20424;-49
2022/08/16 01:19:05;;;;;;;9.27;4.23;;;22.40;66.70;;;;;;5033451;28;20847;-48
2022/08/16 01:21:39;;;;;;;4.93;4.40;;;22.40;66.80;;;;;;5010185;28;20435;-47
2022/08/16 01:24:12;;;;;;;5.50;4.77;;;22.50;66.40;;;;;;5032725;28;20432;-49
2022/08/16 01:26:41;;;;;;;4.80;4.40;;;22.70;65.90;;;;;;5031571;28;20543;-48
2022/08/16 01:29:11;;;;;;;5.83;5.33;;;22.70;65.40;;;;;;5032671;28;20435;-49
2022/08/16 01:31:37;;;;;;;5.37;3.80;;;22.70;65.40;;;;;;5032828;28;20523;-48
2022/08/16 01:34:03;;;;;;;5.10;4.70;;;22.70;65.20;;;;;;5032420;28;20582;-46
2022/08/16 01:36:29;;;;;;;4.60;4.20;;;22.50;66.20;;;;;;5033129;28;20197;-47
2022/08/16 01:38:55;;;;;;;6.07;4.60;;;22.30;67.30;;;;;;5031790;28;20216;-49
2022/08/16 01:41:24;;;;;;;6.40;4.47;;;21.90;68.80;;;;;;5032991;28;20517;-49
2022/08/16 01:43:51;;;;;;;5.47;4.97;;;21.70;69.60;;;;;;5032355;28;20608;-49
2022/08/16 01:46:38;;;;;;;5.30;4.80;;;21.60;70.40;;;;;;5032759;28;20440;-50
2022/08/16 01:49:14;;;;;;;5.30;4.40;;;21.60;70.60;;;;;;5032575;28;20439;-47
2022/08/16 01:51:42;;;;;;;4.50;4.10;;;21.80;69.40;;;;;;5032580;28;20432;-49
2022/08/16 01:54:08;;;;;;;9.57;5.10;;;22.10;68.00;;;;;;5030621;28;20997;-48
2022/08/16 01:56:35;;;;;;;6.00;5.40;;;22.20;67.10;;;;;;5032589;28;20453;-45
2022/08/16 01:59:03;;;;;;;6.10;4.80;;;22.30;66.40;;;;;;5032301;28;20428;-49
2022/08/16 02:01:29;;;;;;;5.90;4.67;;;22.40;65.90;;;;;;5032430;28;20428;-48
2022/08/16 02:03:56;;;;;;;4.30;3.97;;;22.50;65.50;;;;;;5031817;28;20420;-49
2022/08/16 02:06:22;;;;;;;4.53;4.23;;;22.50;65.20;;;;;;5032419;28;20416;-47
2022/08/16 02:08:47;;;;;;;5.33;4.83;;;22.40;65.00;;;;;;5032133;28;20826;-47
2022/08/16 02:11:15;;;;;;;6.23;4.30;;;22.40;65.40;;;;;;5032024;28;20423;-49
2022/08/16 02:13:40;;;;;;;4.80;4.40;;;22.50;65.10;;;;;;5031918;28;20261;-49
2022/08/16 02:16:07;;;;;;;5.80;4.63;;;22.40;65.20;;;;;;5032133;28;20462;-49
2022/08/16 02:18:33;;;;;;;4.77;4.27;;;22.30;65.60;;;;;;5032260;28;20251;-48
2022/08/16 02:21:00;;;;;;;4.60;4.20;;;22.10;67.60;;;;;;5030187;28;20424;-49
2022/08/16 02:23:26;;;;;;;4.80;4.33;;;22.00;67.60;;;;;;5031767;28;20197;-47
2022/08/16 02:25:52;;;;;;;5.03;4.00;;;22.00;67.40;;;;;;5031686;28;20431;-46
2022/08/16 02:28:18;;;;;;;6.80;5.20;;;22.00;67.20;;;;;;5032377;28;20189;-46
2022/08/16 02:30:44;;;;;;;5.30;4.80;;;22.00;67.40;;;;;;5031508;28;20949;-47
2022/08/16 02:33:10;;;;;;;5.53;4.60;;;21.80;67.70;;;;;;5031520;28;20470;-46
2022/08/16 02:35:37;;;;;;;6.23;4.50;;;21.80;67.80;;;;;;5031262;28;20428;-45
2022/08/16 02:38:03;;;;;;;5.20;4.70;;;21.90;67.30;;;;;;5032050;28;20471;-44
2022/08/16 02:40:28;;;;;;;4.40;3.90;;;22.00;66.80;;;;;;5031442;28;20511;-44
2022/08/16 02:42:54;;;;;;;5.90;4.30;;;22.10;66.40;;;;;;5031401;28;20507;-45
2022/08/16 02:45:24;;;;;;;4.87;4.40;;;22.20;66.30;;;;;;5030818;28;20613;-45
2022/08/16 02:47:52;;;;;;;7.87;4.37;;;22.20;66.00;;;;;;5030175;28;20213;-45
2022/08/16 02:50:17;;;;;;;5.87;4.60;;;22.10;66.60;;;;;;5030406;28;20833;-45
2022/08/16 02:52:43;;;;;;;5.30;4.80;;;22.00;66.90;;;;;;5031434;28;20424;-45
2022/08/16 02:55:09;;;;;;;6.77;4.53;;;22.00;67.00;;;;;;5030806;28;20257;-45
2022/08/16 02:57:35;;;;;;;6.03;4.13;;;22.10;66.70;;;;;;5030313;28;20247;-45
2022/08/16 03:00:06;;;;;;;5.40;4.43;;;22.20;66.10;;;;;;5030947;28;20432;-45
2022/08/16 03:02:31;;;;;;;6.30;4.43;;;22.30;66.20;;;;;;5030869;28;20679;-45
2022/08/16 03:04:57;;;;;;;4.53;4.13;;;22.20;66.30;;;;;;5030643;28;20427;-46
2022/08/16 03:07:23;;;;;;;5.87;4.50;;;22.10;66.30;;;;;;5031444;28;20196;-46
2022/08/16 03:09:48;;;;;;;5.63;5.03;;;21.90;67.10;;;;;;5030968;28;20197;-45
2022/08/16 03:12:14;;;;;;;5.37;4.87;;;21.90;67.20;;;;;;5031065;28;20224;-45
2022/08/16 03:14:39;;;;;;;5.30;4.90;;;21.90;67.00;;;;;;5028852;28;20225;-46
2022/08/16 03:17:05;;;;;;;5.30;4.10;;;21.80;67.70;;;;;;5031293;28;20268;-45
2022/08/16 03:19:32;;;;;;;5.00;4.60;;;21.90;67.70;;;;;;5030834;28;20185;-45
2022/08/16 03:21:58;;;;;;;5.13;4.63;;;21.80;67.50;;;;;;5030740;28;20263;-45
2022/08/16 03:24:24;;;;;;;5.23;4.73;;;21.70;68.00;;;;;;5030640;28;20425;-45
2022/08/16 03:26:50;;;;;;;5.30;4.80;;;21.70;68.20;;;;;;5031241;28;20260;-45
2022/08/16 03:29:16;;;;;;;4.43;4.03;;;21.50;69.10;;;;;;5030432;28;20710;-45
2022/08/16 03:31:42;;;;;;;5.00;4.60;;;21.60;69.40;;;;;;5030551;28;20436;-48
2022/08/16 03:34:07;;;;;;;5.93;4.70;;;21.60;68.40;;;;;;5030338;28;20915;-45
2022/08/16 03:36:33;;;;;;;5.87;5.37;;;21.60;68.70;;;;;;5031003;28;20209;-45
2022/08/16 03:38:59;;;;;;;6.50;4.67;;;21.40;69.20;;;;;;5030431;28;20216;-45
2022/08/16 03:41:25;;;;;;;7.47;4.80;;;21.40;69.00;;;;;;5028671;28;20732;-46
2022/08/16 03:43:53;;;;;;;4.90;4.43;;;21.40;69.00;;;;;;5030328;28;20787;-45
2022/08/16 03:46:21;;;;;;;5.70;4.70;;;21.20;70.10;;;;;;5031101;28;20436;-45
2022/08/16 03:48:48;;;;;;;7.53;5.10;;;21.30;69.20;;;;;;5030389;28;20464;-45
2022/08/16 03:51:14;;;;;;;4.57;4.03;;;21.20;69.50;;;;;;5030356;28;20493;-48
2022/08/16 03:53:41;;;;;;;5.17;4.77;;;21.30;69.00;;;;;;5030416;28;20576;-44
2022/08/16 03:56:07;;;;;;;5.30;4.90;;;21.20;68.80;;;;;;5030777;28;20420;-46
2022/08/16 03:58:34;;;;;;;7.73;5.37;;;21.10;69.10;;;;;;5030957;28;20461;-45
2022/08/16 04:01:00;;;;;;;5.17;4.67;;;21.10;68.80;;;;;;5029763;28;20443;-45
2022/08/16 04:03:27;;;;;;;4.50;4.20;;;21.30;68.60;;;;;;5034967;28;20793;-48
2022/08/16 04:05:52;;;;;;;4.87;4.47;;;21.30;68.60;;;;;;5033634;28;20699;-45
2022/08/16 04:08:20;;;;;;;4.70;4.40;;;21.20;68.90;;;;;;5033830;28;20428;-46
2022/08/16 04:10:46;;;;;;;4.80;4.40;;;20.90;70.20;;;;;;5034129;28;20641;-46
2022/08/16 04:13:12;;;;;;;7.30;5.80;;;20.90;70.30;;;;;;5034255;28;20570;-45
2022/08/16 04:15:38;;;;;;;5.47;5.07;;;20.60;71.10;;;;;;5033997;28;20519;-45
2022/08/16 04:18:04;;;;;;;5.30;4.80;;;20.20;73.90;;;;;;5034399;28;20240;-46
2022/08/16 04:20:32;;;;;;;6.07;4.50;;;20.30;74.00;;;;;;5034058;28;20200;-46
2022/08/16 04:22:58;;;;;;;5.27;4.77;;;20.40;73.60;;;;;;5034527;28;20451;-45
2022/08/16 04:25:24;;;;;;;5.63;5.13;;;20.50;72.80;;;;;;5033810;28;20432;-45
2022/08/16 04:27:50;;;;;;;8.23;5.33;;;20.40;72.90;;;;;;5034124;28;20216;-45
2022/08/16 04:30:18;;;;;;;7.13;5.40;;;20.40;72.70;;;;;;5033815;28;20912;-49
2022/08/16 04:32:44;;;;;;;5.13;4.73;;;20.40;72.90;;;;;;5032856;28;20665;-45
2022/08/16 04:35:15;;;;;;;6.60;4.10;;;20.60;71.90;;;;;;5033357;28;20620;-44
2022/08/16 04:37:42;;;;;;;4.97;4.57;;;20.70;71.40;;;;;;5033921;28;20467;-45
2022/08/16 04:40:09;;;;;;;5.43;4.73;;;20.80;70.70;;;;;;5033738;28;20431;-46
2022/08/16 04:42:38;;;;;;;6.07;5.47;;;20.90;70.80;;;;;;5033735;28;20471;-45
2022/08/16 04:45:05;;;;;;;5.90;5.33;;;20.90;70.50;;;;;;5033490;28;20439;-45
2022/08/16 04:47:31;;;;;;;7.17;4.70;;;20.80;70.70;;;;;;5033826;28;20533;-45
2022/08/16 04:49:57;;;;;;;5.50;4.40;;;20.90;70.80;;;;;;5033239;28;20940;-44
2022/08/16 04:52:23;;;;;;;6.03;5.00;;;20.80;70.90;;;;;;5033708;28;20441;-47
2022/08/16 04:54:49;;;;;;;5.97;5.23;;;20.80;71.30;;;;;;5033369;28;20476;-45
2022/08/16 04:57:14;;;;;;;4.77;4.37;;;20.90;71.40;;;;;;5033839;28;20239;-45
2022/08/16 04:59:40;;;;;;;5.00;4.37;;;21.00;70.70;;;;;;5031545;28;20193;-44
2022/08/16 05:02:06;;;;;;;5.17;4.77;;;21.10;70.50;;;;;;5033335;28;20189;-46
2022/08/16 05:04:32;;;;;;;5.20;4.63;;;21.10;70.30;;;;;;5033073;28;20235;-46
2022/08/16 05:06:58;;;;;;;4.47;4.07;;;21.20;69.90;;;;;;5033451;28;20270;-46
2022/08/16 05:09:23;;;;;;;4.67;4.27;;;21.40;69.10;;;;;;5033064;28;20510;-45
2022/08/16 05:11:49;;;;;;;5.37;4.97;;;21.50;68.60;;;;;;5033321;28;20200;-47
2022/08/16 05:14:15;;;;;;;5.27;4.50;;;21.50;68.30;;;;;;5031961;28;20225;-45
2022/08/16 05:16:41;;;;;;;5.63;5.13;;;21.70;68.10;;;;;;5033423;28;20193;-45
2022/08/16 05:19:07;;;;;;;4.43;4.03;;;21.80;67.60;;;;;;5032599;28;20197;-45
2022/08/16 05:21:34;;;;;;;5.53;4.27;;;21.80;67.40;;;;;;5033165;28;20833;-44
2022/08/16 05:24:00;;;;;;;5.83;5.07;;;21.70;67.20;;;;;;5032770;28;20435;-45
2022/08/16 05:26:30;;;;;;;6.43;4.97;;;21.80;66.90;;;;;;5031601;28;20435;-46
2022/08/16 05:28:57;;;;;;;5.90;4.27;;;21.60;68.10;;;;;;5032267;28;20428;-45
2022/08/16 05:31:27;;;;;;;5.23;4.73;;;21.80;67.90;;;;;;5032730;28;20775;-45
2022/08/16 05:33:53;;;;;;;5.40;4.70;;;21.90;67.00;;;;;;5032516;28;20893;-47
2022/08/16 05:36:19;;;;;;;5.00;4.60;;;22.00;66.60;;;;;;5033156;28;20428;-49
2022/08/16 05:38:46;;;;;;;5.10;4.60;;;22.00;66.00;;;;;;5030953;28;20239;-45
2022/08/16 05:41:11;;;;;;;4.83;4.43;;;22.00;65.80;;;;;;5032878;28;20193;-45
2022/08/16 05:43:37;;;;;;;4.17;3.77;;;22.10;65.80;;;;;;5032725;28;20459;-45
2022/08/16 05:46:03;;;;;;;4.63;4.20;;;22.30;65.40;;;;;;5032731;28;20208;-46
2022/08/16 05:48:29;;;;;;;5.83;4.30;;;22.30;65.10;;;;;;5032934;28;20787;-44
2022/08/16 05:50:54;;;;;;;5.13;4.63;;;22.20;64.90;;;;;;5031797;28;20264;-45
2022/08/16 05:53:20;;;;;;;6.40;4.40;;;22.20;65.30;;;;;;5030974;28;20209;-45
2022/08/16 05:55:46;;;;;;;5.13;4.73;;;22.10;65.80;;;;;;5032372;28;20247;-46
2022/08/16 05:58:12;;;;;;;5.10;4.70;;;22.20;65.40;;;;;;5032474;28;20432;-45
2022/08/16 06:00:37;;;;;;;5.17;4.10;;;22.20;65.50;;;;;;5032222;28;20288;-45
2022/08/16 06:03:03;;;;;;;5.07;4.50;;;22.40;64.90;;;;;;5032318;28;20660;-45
2022/08/16 06:05:29;;;;;;;5.47;4.97;;;22.50;64.50;;;;;;5031758;28;20197;-45
2022/08/16 06:07:55;;;;;;;5.70;5.17;;;22.60;64.50;;;;;;5032632;28;20198;-48
2022/08/16 06:10:20;;;;;;;6.20;4.47;;;22.60;64.30;;;;;;5031996;28;20485;-48
2022/08/16 06:12:46;;;;;;;4.93;4.53;;;22.60;64.20;;;;;;5032224;28;20198;-48
2022/08/16 06:15:14;;;;;;;4.73;4.43;;;22.70;64.00;;;;;;5031781;28;20224;-48
2022/08/16 06:17:41;;;;;;;4.97;4.57;;;22.70;63.40;;;;;;5032014;28;20672;-47
2022/08/16 06:20:08;;;;;;;4.90;4.27;;;22.50;64.10;;;;;;5030128;28;20473;-48
2022/08/16 06:22:36;;;;;;;5.00;4.60;;;22.60;64.50;;;;;;5031848;28;20745;-49
2022/08/16 06:25:02;;;;;;;4.57;4.17;;;22.70;64.50;;;;;;5031673;28;20515;-46
2022/08/16 06:27:27;;;;;;;5.23;4.83;;;22.70;64.60;;;;;;5031758;28;20535;-48
2022/08/16 06:29:53;;;;;;;5.80;4.97;;;22.70;64.10;;;;;;5031359;28;20527;-49
2022/08/16 06:32:19;;;;;;;5.77;5.37;;;22.50;64.50;;;;;;5031668;28;20204;-46
2022/08/16 06:34:44;;;;;;;4.70;4.30;;;22.60;64.80;;;;;;5031495;28;20279;-49
2022/08/16 06:37:10;;;;;;;7.03;4.87;;;22.70;64.20;;;;;;5031467;28;20233;-46
2022/08/16 06:39:35;;;;;;;7.93;7.00;;;22.80;64.00;;;;;;5031343;28;20194;-48
2022/08/16 06:42:01;;;;;;;5.80;5.30;;;23.00;63.20;;;;;;5031517;28;20224;-45
2022/08/16 06:44:26;;;;;;;4.70;4.30;;;22.80;63.30;;;;;;5031154;28;20236;-49
2022/08/16 06:46:52;;;;;;;4.93;4.53;;;22.70;64.20;;;;;;5030281;28;20638;-49
2022/08/16 06:49:18;;;;;;;4.90;4.60;;;22.80;63.80;;;;;;5031330;28;20201;-45
2022/08/16 06:51:43;;;;;;;4.70;4.40;;;22.80;63.50;;;;;;5031272;28;20220;-45
2022/08/16 06:54:09;;;;;;;4.60;4.13;;;23.00;62.70;;;;;;5030841;28;20224;-48
2022/08/16 06:56:35;;;;;;;6.23;4.13;;;23.30;61.70;;;;;;5031547;28;20645;-49
2022/08/16 06:59:02;;;;;;;4.70;4.30;;;23.60;61.00;;;;;;5031058;28;20197;-50
2022/08/16 07:01:27;;;;;;;5.10;4.37;;;23.90;59.90;;;;;;5031099;28;20432;-49
2022/08/16 07:03:53;;;;;;;4.43;4.13;;;23.90;59.20;;;;;;5030893;28;20679;-48
2022/08/16 07:06:19;;;;;;;5.17;4.27;;;24.10;58.90;;;;;;5031288;28;20189;-49
2022/08/16 07:08:46;;;;;;;4.70;4.30;;;24.30;58.00;;;;;;5031225;28;20198;-47
2022/08/16 07:11:13;;;;;;;5.87;4.80;;;24.50;57.60;;;;;;5030783;28;20435;-49
2022/08/16 07:13:39;;;;;;;4.13;3.83;;;24.70;57.20;;;;;;5029401;28;20494;-46
2022/08/16 07:16:13;;;;;;;5.03;4.53;;;24.90;56.60;;;;;;5031210;28;20425;-49
2022/08/16 07:18:41;;;;;;;4.20;3.90;;;24.70;57.10;;;;;;5031027;28;20197;-47
2022/08/16 07:21:08;;;;;;;4.87;4.37;;;25.00;56.80;;;;;;5030812;28;20428;-49
2022/08/16 07:23:35;;;;;;;4.80;4.40;;;25.20;56.20;;;;;;5031280;28;20579;-46
2022/08/16 07:26:03;;;;;;;4.80;4.17;;;25.60;55.70;;;;;;5030965;28;20452;-49
2022/08/16 07:28:29;;;;;;;4.57;4.23;;;25.70;55.00;;;;;;5030963;28;20442;-45
2022/08/16 07:30:55;;;;;;;6.33;4.80;;;25.90;54.50;;;;;;5030088;28;20908;-47
2022/08/16 07:33:21;;;;;;;7.60;4.40;;;26.10;53.90;;;;;;5031180;28;20555;-49
2022/08/16 07:35:46;;;;;;;5.60;5.10;;;26.30;53.50;;;;;;5030256;28;20421;-45
2022/08/16 07:38:13;;;;;;;4.87;4.50;;;26.40;53.40;;;;;;5030811;28;20229;-45
2022/08/16 07:40:38;;;;;;;4.87;4.37;;;26.60;53.20;;;;;;5028321;28;20204;-50
2022/08/16 07:43:04;;;;;;;5.47;5.07;;;26.80;52.50;;;;;;5030827;28;20431;-49
2022/08/16 07:45:32;;;;;;;5.30;4.73;;;26.80;52.50;;;;;;5030236;28;20272;-45
2022/08/16 07:47:58;;;;;;;4.73;4.40;;;27.00;51.90;;;;;;5030801;28;20189;-49
2022/08/16 07:50:24;;;;;;;5.53;4.80;;;27.30;51.40;;;;;;5030191;28;20836;-46
2022/08/16 07:52:50;;;;;;;5.43;5.03;;;27.60;50.60;;;;;;5030220;28;20440;-46
2022/08/16 07:55:17;;;;;;;5.13;4.63;;;27.80;49.60;;;;;;5030184;28;20487;-46
2022/08/16 07:57:43;;;;;;;6.93;4.87;;;28.00;49.50;;;;;;5030865;28;20254;-45
2022/08/16 08:00:10;;;;;;;5.37;4.87;;;28.10;48.70;;;;;;5030173;28;21273;-47
2022/08/16 08:02:35;;;;;;;6.20;4.73;;;28.20;48.10;;;;;;5030087;28;20263;-49
2022/08/16 08:05:02;;;;;;;5.60;5.10;;;28.10;48.50;;;;;;5030089;28;20432;-48
2022/08/16 08:07:28;;;;;;;6.73;4.60;;;28.00;48.50;;;;;;5029135;28;20204;-48
2022/08/16 08:09:56;;;;;;;5.23;4.43;;;28.30;48.30;;;;;;5030140;28;20436;-47
2022/08/16 08:12:21;;;;;;;5.07;4.67;;;28.10;48.00;;;;;;5029899;28;20649;-49
2022/08/16 08:14:47;;;;;;;4.70;4.30;;;28.40;47.80;;;;;;5030252;28;20495;-48
2022/08/16 08:17:14;;;;;;;5.80;5.30;;;28.70;47.40;;;;;;5030557;28;20641;-49
2022/08/16 08:19:40;;;;;;;5.80;5.30;;;28.90;46.20;;;;;;5029993;28;20661;-47
2022/08/16 08:22:07;;;;;;;7.00;5.17;;;29.00;46.10;;;;;;5030255;28;20439;-47
2022/08/16 08:24:36;;;;;;;6.30;4.57;;;29.30;45.40;;;;;;5030129;28;20871;-49
2022/08/16 08:27:03;;;;;;;8.23;4.67;;;29.40;44.90;;;;;;5030460;28;20850;-50
2022/08/16 08:29:29;;;;;;;5.53;5.07;;;29.50;44.90;;;;;;5029986;28;20428;-47
2022/08/16 08:31:55;;;;;;;5.30;4.80;;;29.60;44.00;;;;;;5029766;28;20443;-46
2022/08/16 08:34:21;;;;;;;7.77;5.80;;;29.70;43.60;;;;;;5028172;28;20582;-48
2022/08/16 08:36:47;;;;;;;5.07;4.57;;;29.60;43.10;;;;;;5030576;28;20198;-49
2022/08/16 08:39:14;;;;;;;5.20;4.80;;;29.80;43.60;;;;;;5029768;28;20823;-47
2022/08/16 08:41:43;;;;;;;5.77;5.17;;;30.00;42.80;;;;;;5029993;28;20440;-46
2022/08/16 08:44:10;;;;;;;6.57;5.67;;;30.00;43.00;;;;;;5029731;28;20990;-49
2022/08/16 08:46:36;;;;;;;5.17;4.67;;;30.20;42.00;;;;;;5030269;28;20764;-49
2022/08/16 08:49:02;;;;;;;4.93;4.53;;;30.40;41.90;;;;;;5031435;28;20515;-48
2022/08/16 08:51:28;;;;;;;5.63;5.17;;;30.60;41.60;;;;;;5033964;28;20202;-49
2022/08/16 08:53:53;;;;;;;5.20;4.70;;;30.80;41.20;;;;;;5033323;28;21069;-47
2022/08/16 08:56:19;;;;;;;6.30;5.23;;;30.80;41.20;;;;;;5034176;28;20465;-49
2022/08/16 08:58:45;;;;;;;5.77;5.13;;;30.80;41.20;;;;;;5033316;28;20276;-49
2022/08/16 09:01:11;;;;;;;5.93;5.53;;;30.80;40.90;;;;;;5031633;28;20553;-46
2022/08/16 09:03:37;;;;;;;6.73;6.13;;;31.00;40.80;;;;;;5033640;28;20208;-49
2022/08/16 09:06:05;;;;;;;5.80;5.17;;;31.20;40.00;;;;;;5033608;28;20201;-50
2022/08/16 09:08:31;;;;;;;6.83;4.80;;;31.50;39.80;;;;;;5033492;28;20476;-48
2022/08/16 09:10:57;;;;;;;5.27;4.80;;;31.70;39.40;;;;;;5032537;28;20510;-51
2022/08/16 09:13:24;;;;;;;6.73;5.07;;;31.40;39.20;;;;;;5033650;28;20424;-45
2022/08/16 09:15:54;;;;;;;6.17;5.27;;;31.60;38.70;;;;;;5032867;28;20420;-48
2022/08/16 09:18:21;;;;;;;7.40;5.53;;;31.90;38.70;;;;;;5033372;28;20420;-48
2022/08/16 09:20:48;;;;;;;7.47;5.30;;;32.00;38.40;;;;;;5032573;28;20506;-49
2022/08/16 09:23:13;;;;;;;5.40;4.93;;;32.10;38.30;;;;;;5033648;28;20911;-49
2022/08/16 09:25:40;;;;;;;5.73;5.20;;;31.70;38.20;;;;;;5032855;28;20431;-46
2022/08/16 09:28:05;;;;;;;5.23;4.83;;;31.50;39.00;;;;;;5031841;28;20204;-49
2022/08/16 09:30:35;;;;;;;6.57;4.60;;;31.60;38.70;;;;;;5032183;28;20428;-48
2022/08/16 09:33:03;;;;;;;5.73;5.00;;;31.90;38.30;;;;;;5033354;28;20193;-50
2022/08/16 09:35:28;;;;;;;5.50;5.00;;;32.00;38.30;;;;;;5032491;28;20517;-50
2022/08/16 09:37:55;;;;;;;5.20;4.80;;;32.10;37.80;;;;;;5032795;28;21026;-49
2022/08/16 09:40:22;;;;;;;6.40;5.20;;;32.20;37.60;;;;;;5032153;28;20193;-50
2022/08/16 09:42:47;;;;;;;6.07;5.50;;;32.50;37.40;;;;;;5033421;28;20476;-50
2022/08/16 09:45:13;;;;;;;5.37;4.97;;;32.60;36.70;;;;;;5032345;28;20436;-48
2022/08/16 09:47:39;;;;;;;4.83;4.43;;;32.70;36.30;;;;;;5032849;28;20820;-48
2022/08/16 09:50:13;;;;;;;5.13;4.70;;;32.80;36.50;;;;;;5032223;28;20284;-49
2022/08/16 09:52:39;;;;;;;7.20;5.63;;;32.90;36.20;;;;;;5032629;28;20451;-49
2022/08/16 09:55:08;;;;;;;6.27;4.37;;;32.90;36.20;;;;;;5030676;28;20570;-50
2022/08/16 09:57:40;;;;;;;5.47;4.97;;;32.90;36.10;;;;;;5032808;28;20451;-48
2022/08/16 10:00:11;;;;;;;5.10;4.70;;;32.90;36.10;;;;;;5031898;28;20442;-49
2022/08/16 10:02:38;;;;;;;5.20;4.70;;;32.80;36.40;;;;;;5032239;28;20455;-49
2022/08/16 10:05:04;;;;;;;4.80;4.40;;;32.90;36.10;;;;;;5032169;28;20463;-50
2022/08/16 10:07:31;;;;;;;10.40;5.60;;;33.00;36.40;;;;;;5032235;28;20466;-50
2022/08/16 10:09:56;;;;;;;5.43;5.03;;;33.10;36.30;;;;;;5030731;28;20210;-49
2022/08/16 10:15:13;;;;;;;5.17;4.70;;;33.00;36.20;;;;;;5032011;28;20223;-50
2022/08/16 10:17:41;;;;;;;5.37;4.87;;;33.00;36.00;;;;;;5031930;28;20440;-49
2022/08/16 10:20:10;;;;;;;5.50;5.10;;;32.80;36.20;;;;;;5030034;28;20621;-49
2022/08/16 10:22:36;;;;;;;6.33;5.30;;;32.70;36.30;;;;;;5031863;28;20458;-50
2022/08/16 10:25:02;;;;;;;5.97;5.50;;;33.00;36.10;;;;;;5031790;28;20892;-50
2022/08/16 10:27:27;;;;;;;5.80;5.30;;;33.20;35.40;;;;;;5032073;28;20440;-47
2022/08/16 10:29:53;;;;;;;6.20;5.30;;;33.40;35.20;;;;;;5031594;28;20437;-51
2022/08/16 10:32:19;;;;;;;4.70;4.30;;;33.60;34.60;;;;;;5031770;28;20640;-50
2022/08/16 10:34:45;;;;;;;6.03;5.17;;;33.60;34.60;;;;;;5031478;28;20607;-49
2022/08/16 10:37:11;;;;;;;5.07;4.70;;;33.50;34.50;;;;;;5031970;28;20521;-49
2022/08/16 10:39:38;;;;;;;5.50;4.97;;;33.40;34.30;;;;;;5031213;28;20505;-50
2022/08/16 10:42:05;;;;;;;5.50;5.00;;;33.20;33.90;;;;;;5031465;28;20436;-50
2022/08/16 10:44:31;;;;;;;5.80;5.27;;;32.70;34.40;;;;;;5031460;28;20424;-50
2022/08/16 10:46:56;;;;;;;6.00;5.50;;;32.50;35.10;;;;;;5030080;28;20904;-49
2022/08/16 10:49:22;;;;;;;6.20;5.30;;;32.70;35.10;;;;;;5031237;28;20197;-48
2022/08/16 10:51:48;;;;;;;4.50;4.17;;;32.80;35.30;;;;;;5031500;28;20204;-50
2022/08/16 10:54:14;;;;;;;4.60;4.20;;;32.90;34.80;;;;;;5030965;28;20311;-48
2022/08/16 10:56:40;;;;;;;4.47;4.13;;;33.00;34.40;;;;;;5031600;28;20204;-49
2022/08/16 10:59:06;;;;;;;5.20;4.80;;;32.80;34.50;;;;;;5030564;28;20232;-48
2022/08/16 11:01:31;;;;;;;5.27;4.87;;;32.80;34.60;;;;;;5030750;28;20193;-48
2022/08/16 11:03:57;;;;;;;6.60;4.97;;;32.90;34.70;;;;;;5030827;28;20317;-51
2022/08/16 11:06:24;;;;;;;5.00;4.70;;;32.90;34.70;;;;;;5031138;28;20247;-50
2022/08/16 11:08:49;;;;;;;5.87;5.13;;;32.90;34.70;;;;;;5030912;28;20200;-50
2022/08/16 11:11:15;;;;;;;5.60;4.90;;;33.00;34.90;;;;;;5030310;28;20420;-50
2022/08/16 11:13:42;;;;;;;5.37;4.70;;;33.00;34.90;;;;;;5028992;28;20256;-50
2022/08/16 11:16:08;;;;;;;5.67;5.07;;;33.00;34.40;;;;;;5031446;28;20665;-49
2022/08/16 11:18:34;;;;;;;5.23;4.83;;;33.10;35.10;;;;;;5031187;28;20912;-50
2022/08/16 11:21:00;;;;;;;6.67;4.83;;;33.30;34.60;;;;;;5030129;28;20431;-50
2022/08/16 11:23:27;;;;;;;5.07;4.77;;;32.80;34.70;;;;;;5030802;28;20556;-48
2022/08/16 11:25:54;;;;;;;7.07;5.50;;;32.50;35.50;;;;;;5030422;28;20197;-46
2022/08/16 11:28:19;;;;;;;5.87;5.47;;;32.20;36.10;;;;;;5030926;28;20424;-46
2022/08/16 11:30:45;;;;;;;5.27;4.87;;;32.40;36.50;;;;;;5029871;28;20428;-47
2022/08/16 11:33:11;;;;;;;7.00;5.00;;;32.60;35.10;;;;;;5030725;28;20553;-46
2022/08/16 11:35:39;;;;;;;6.13;5.00;;;32.80;34.90;;;;;;5030020;28;20207;-48
2022/08/16 11:38:16;;;;;;;6.03;4.93;;;32.50;35.50;;;;;;5030995;28;20467;-49
2022/08/16 11:40:50;;;;;;;4.63;4.23;;;32.70;35.40;;;;;;5028327;28;20436;-48
2022/08/16 11:43:18;;;;;;;5.53;5.03;;;33.10;34.90;;;;;;5030525;28;20440;-48
2022/08/16 11:45:46;;;;;;;5.23;4.80;;;33.40;33.90;;;;;;5030501;28;20458;-47
2022/08/16 11:48:12;;;;;;;5.20;4.50;;;33.50;33.90;;;;;;5030610;28;20432;-46
2022/08/16 11:50:40;;;;;;;7.20;5.10;;;33.60;33.20;;;;;;5029596;28;20439;-49
2022/08/16 11:53:07;;;;;;;4.80;4.40;;;33.90;33.20;;;;;;5030482;28;20518;-50
2022/08/16 11:55:33;;;;;;;5.07;4.57;;;34.10;32.60;;;;;;5030333;28;20486;-50
2022/08/16 11:58:00;;;;;;;4.80;4.50;;;34.30;32.40;;;;;;5030605;28;20511;-47
2022/08/16 12:00:28;;;;;;;6.73;5.00;;;34.60;31.90;;;;;;5029467;28;20471;-49
2022/08/16 12:02:54;;;;;;;5.00;4.60;;;34.40;31.50;;;;;;5030588;28;20431;-50
2022/08/16 12:05:20;;;;;;;5.03;4.50;;;34.40;31.80;;;;;;5030187;28;20416;-50
2022/08/16 12:07:46;;;;;;;4.60;4.20;;;34.80;31.00;;;;;;5028958;28;20561;-46
2022/08/16 12:10:15;;;;;;;5.00;4.70;;;35.20;30.90;;;;;;5029398;28;20435;-50
2022/08/16 12:12:43;;;;;;;5.90;4.80;;;35.60;30.10;;;;;;5030656;28;20185;-46
2022/08/16 12:15:09;;;;;;;4.60;4.30;;;35.70;30.10;;;;;;5030022;28;20597;-50
2022/08/16 12:17:36;;;;;;;4.63;4.33;;;35.80;30.00;;;;;;5030664;28;20424;-48
2022/08/16 12:20:08;;;;;;;5.00;4.60;;;36.00;30.00;;;;;;5030148;28;20437;-49
2022/08/16 12:22:35;;;;;;;5.03;4.37;;;36.10;29.60;;;;;;5031056;28;20467;-51
2022/08/16 12:25:03;;;;;;;5.20;4.80;;;36.30;29.50;;;;;;5034094;28;20474;-49
2022/08/16 12:27:30;;;;;;;4.80;4.40;;;36.30;29.50;;;;;;5034141;28;20428;-50
2022/08/16 12:29:56;;;;;;;4.50;4.20;;;36.50;29.00;;;;;;5033676;28;20447;-49
2022/08/16 12:32:21;;;;;;;5.13;4.60;;;36.60;28.90;;;;;;5033612;28;20416;-47
2022/08/16 12:34:48;;;;;;;4.90;4.40;;;36.60;28.70;;;;;;5032209;28;20319;-50
2022/08/16 12:37:14;;;;;;;7.40;4.37;;;36.30;29.00;;;;;;5033982;28;20262;-47
2022/08/16 12:39:40;;;;;;;5.27;4.37;;;36.20;29.00;;;;;;5033369;28;20436;-47
2022/08/16 12:42:08;;;;;;;4.87;4.30;;;36.20;28.90;;;;;;5033483;28;20434;-52
2022/08/16 12:44:35;;;;;;;4.50;4.10;;;36.20;29.10;;;;;;5033804;28;20451;-50
2022/08/16 12:49:45;;;;;;;4.80;4.30;;;35.40;29.70;;;;;;5033670;28;20430;-51
2022/08/16 12:52:11;;;;;;;5.97;4.60;;;35.50;29.90;;;;;;5033521;28;20427;-51